Time;durP1;ratioP1;P1;durP2;ratioP2;P2;SDS_P1;SDS_P2;PMS_P1;PMS_P2;Temp;Humidity;BMP_temperature;BMP_pressure;BME280_temperature;BME280_humidity;BME280_pressure;Samples;Min_cycle;Max_cycle;Signal;HPM_P1;HPM_P2
2021/12/24 00:03:47;;;;;;;18.75;8.45;;;6.20;98.50;;;;;;10411028;28;20541;-75
2021/12/24 00:08:49;;;;;;;16.73;7.63;;;6.30;98.60;;;;;;10410484;28;20166;-62
2021/12/24 00:13:51;;;;;;;17.95;8.85;;;6.30;98.60;;;;;;10409511;28;20506;-62
2021/12/24 00:19:02;;;;;;;20.30;8.40;;;6.30;98.60;;;;;;10410007;28;20530;-74
2021/12/24 00:45:39;;;;;;;17.42;7.90;;;6.40;98.60;;;;;;10402015;28;20049;-72
2021/12/24 00:55:54;;;;;;;14.57;7.05;;;6.40;98.60;;;;;;10404568;28;20042;-73
2021/12/24 01:00:55;;;;;;;18.27;8.27;;;6.50;98.60;;;;;;10416777;28;20055;-69
2021/12/24 01:05:55;;;;;;;15.35;7.80;;;6.60;98.70;;;;;;10426349;28;20055;-68
2021/12/24 01:11:01;;;;;;;15.02;7.45;;;6.50;98.70;;;;;;10417976;28;20014;-73
2021/12/24 01:16:08;;;;;;;17.08;6.72;;;6.60;98.70;;;;;;10407980;28;20127;-73
2021/12/24 01:26:31;;;;;;;13.45;6.75;;;6.60;98.70;;;;;;10407810;28;20077;-65
2021/12/24 01:47:42;;;;;;;11.18;5.88;;;6.70;98.80;;;;;;10400618;28;20022;-72
2021/12/24 01:52:42;;;;;;;12.23;6.20;;;6.70;98.90;;;;;;10399335;28;20029;-70
2021/12/24 01:57:43;;;;;;;12.13;6.15;;;6.70;98.90;;;;;;10412527;28;20045;-66
2021/12/24 02:02:45;;;;;;;11.07;5.78;;;6.80;99.00;;;;;;10416503;28;20045;-70
2021/12/24 02:07:46;;;;;;;11.23;5.75;;;6.80;99.00;;;;;;10419659;28;20029;-72
2021/12/24 02:12:49;;;;;;;11.93;5.88;;;6.80;99.00;;;;;;10396400;28;20075;-69
2021/12/24 02:28:25;;;;;;;11.23;5.50;;;6.90;99.10;;;;;;10404890;28;20056;-71
2021/12/24 02:33:26;;;;;;;10.63;5.47;;;6.90;99.10;;;;;;10396963;28;20042;-73
2021/12/24 02:38:27;;;;;;;9.35;5.20;;;7.00;99.20;;;;;;10404249;28;20510;-67
2021/12/24 02:43:28;;;;;;;8.82;5.25;;;7.00;99.20;;;;;;10403341;28;20033;-73
2021/12/24 02:53:59;;;;;;;;;;;7.00;99.20;;;;;;10403569;28;20072;-69
2021/12/24 02:59:03;;;;;;;7.35;4.25;;;7.10;99.90;;;;;;10398547;28;20012;-67
2021/12/24 03:04:04;;;;;;;8.60;4.78;;;7.10;99.20;;;;;;10402926;28;20067;-69
2021/12/24 03:09:08;;;;;;;8.18;4.30;;;7.50;99.30;;;;;;10403048;28;20068;-68
2021/12/24 03:14:09;;;;;;;9.43;4.72;;;7.10;99.30;;;;;;10402519;28;20033;-66
2021/12/24 03:19:11;;;;;;;7.32;3.92;;;7.20;99.30;;;;;;10401617;28;20056;-71
2021/12/24 03:29:15;;;;;;;7.22;4.07;;;7.20;99.30;;;;;;10401651;28;20466;-74
2021/12/24 03:34:19;;;;;;;8.35;4.20;;;7.20;99.30;;;;;;10402055;28;20065;-71
2021/12/24 03:39:20;;;;;;;6.75;3.78;;;7.30;99.40;;;;;;10403179;28;20499;-73
2021/12/24 03:44:30;;;;;;;5.70;3.78;;;7.20;99.30;;;;;;10402769;28;20033;-71
2021/12/24 03:59:51;;;;;;;6.60;3.85;;;7.30;99.40;;;;;;10402817;28;20515;-68
2021/12/24 04:04:52;;;;;;;7.80;3.67;;;7.30;99.40;;;;;;10403981;28;20112;-71
2021/12/24 04:10:01;;;;;;;7.38;4.25;;;7.30;99.40;;;;;;10402874;28;20498;-73
2021/12/24 04:15:03;;;;;;;7.65;3.72;;;7.40;99.50;;;;;;10401950;28;20041;-70
2021/12/24 04:25:26;;;;;;;8.00;3.67;;;7.40;99.40;;;;;;10402417;28;20045;-73
2021/12/24 04:30:34;;;;;;;9.60;4.15;;;7.40;99.50;;;;;;10402195;28;20037;-71
2021/12/24 04:35:42;;;;;;;7.82;4.10;;;7.40;99.50;;;;;;10404977;28;20444;-68
2021/12/24 04:51:25;;;;;;;7.63;3.90;;;7.50;99.50;;;;;;10409747;28;20060;-65
2021/12/24 05:02:00;;;;;;;10.00;4.28;;;7.50;99.50;;;;;;10410092;28;20053;-64
2021/12/24 05:07:18;;;;;;;8.88;4.03;;;7.50;99.50;;;;;;10425481;28;20022;-64
2021/12/24 05:12:19;;;;;;;8.52;4.45;;;7.50;99.50;;;;;;10414247;28;20132;-62
2021/12/24 05:22:20;;;;;;;7.05;4.40;;;7.50;99.60;;;;;;10408362;28;20091;-73
2021/12/24 05:27:21;;;;;;;8.20;4.07;;;7.60;99.60;;;;;;10408067;28;20037;-74
2021/12/24 05:32:22;;;;;;;9.50;4.13;;;7.60;99.60;;;;;;10408990;28;20026;-70
2021/12/24 05:37:22;;;;;;;8.32;4.55;;;7.60;99.60;;;;;;10410412;28;20068;-72
2021/12/24 05:42:25;;;;;;;10.80;4.25;;;7.60;99.70;;;;;;10408521;28;20597;-72
2021/12/24 05:47:26;;;;;;;7.63;3.88;;;7.60;99.70;;;;;;10406634;28;20025;-69
2021/12/24 05:52:27;;;;;;;8.07;4.15;;;7.60;99.70;;;;;;10407560;28;20035;-68
2021/12/24 05:57:29;;;;;;;11.43;4.03;;;7.60;99.70;;;;;;10406767;28;20403;-67
2021/12/24 06:02:29;;;;;;;10.98;4.28;;;7.90;99.80;;;;;;10406474;28;20570;-65
2021/12/24 06:07:30;;;;;;;9.20;4.18;;;7.70;99.70;;;;;;10407088;28;20083;-73
2021/12/24 06:12:31;;;;;;;8.05;4.05;;;7.70;99.70;;;;;;10406226;28;20395;-70
2021/12/24 06:17:33;;;;;;;9.55;3.78;;;7.70;99.70;;;;;;10406308;28;20071;-73
2021/12/24 06:22:35;;;;;;;8.25;3.95;;;7.70;99.80;;;;;;10399334;28;20033;-73
2021/12/24 06:27:36;;;;;;;8.30;3.55;;;7.70;99.80;;;;;;10405711;28;20028;-73
2021/12/24 06:32:37;;;;;;;6.22;3.97;;;7.30;99.70;;;;;;10405413;28;20093;-71
2021/12/24 06:37:38;;;;;;;8.32;4.00;;;7.70;99.90;;;;;;10405980;28;20045;-73
2021/12/24 06:42:39;;;;;;;8.30;3.67;;;7.70;99.80;;;;;;10405289;28;20033;-70
2021/12/24 06:47:40;;;;;;;10.98;3.63;;;7.70;99.90;;;;;;10405121;28;20033;-73
2021/12/24 06:52:41;;;;;;;6.57;3.05;;;7.70;99.80;;;;;;10404743;28;20068;-72
2021/12/24 06:57:42;;;;;;;7.85;3.28;;;7.70;99.90;;;;;;10404424;28;20076;-71
2021/12/24 07:02:43;;;;;;;7.97;3.28;;;7.70;99.90;;;;;;10404441;28;20053;-70
2021/12/24 07:07:45;;;;;;;7.05;3.28;;;7.80;99.90;;;;;;10404008;28;20029;-68
2021/12/24 07:12:45;;;;;;;9.60;3.50;;;7.80;99.90;;;;;;10394461;28;20119;-66
2021/12/24 07:17:46;;;;;;;7.60;3.40;;;7.80;99.90;;;;;;10401298;28;20041;-70
2021/12/24 07:22:47;;;;;;;11.20;3.38;;;7.80;99.90;;;;;;10393003;28;20032;-64
2021/12/24 07:27:48;;;;;;;9.10;3.15;;;7.80;99.90;;;;;;10401233;28;20055;-70
2021/12/24 07:32:49;;;;;;;9.50;3.80;;;7.80;99.90;;;;;;10398565;28;20021;-66
2021/12/24 07:37:50;;;;;;;6.78;3.50;;;7.90;99.90;;;;;;10401532;28;20033;-69
2021/12/24 07:42:51;;;;;;;9.65;3.72;;;7.90;99.90;;;;;;10402031;28;20041;-75
2021/12/24 07:48:07;;;;;;;7.70;3.50;;;7.90;99.90;;;;;;10380449;28;20155;-72
2021/12/24 07:53:11;;;;;;;11.43;3.70;;;7.90;99.90;;;;;;10372596;28;20511;-72
2021/12/24 07:58:14;;;;;;;9.18;3.20;;;7.90;99.90;;;;;;10395568;28;20037;-69
2021/12/24 08:03:15;;;;;;;7.68;3.40;;;7.90;99.90;;;;;;10402611;28;20065;-71
2021/12/24 08:08:15;;;;;;;8.23;3.17;;;7.90;99.90;;;;;;10403187;28;20056;-66
2021/12/24 08:13:17;;;;;;;9.23;3.13;;;7.90;99.90;;;;;;10407646;28;20045;-70
2021/12/24 08:18:18;;;;;;;9.70;3.72;;;7.90;99.90;;;;;;10393427;28;20048;-72
2021/12/24 08:23:23;;;;;;;9.18;2.90;;;7.90;99.90;;;;;;10383255;28;20125;-73
2021/12/24 08:28:29;;;;;;;6.55;2.80;;;7.90;99.90;;;;;;10404061;28;20029;-72
2021/12/24 08:33:30;;;;;;;5.90;2.90;;;7.90;99.90;;;;;;10409870;28;20350;-72
2021/12/24 08:38:31;;;;;;;8.68;3.35;;;7.90;99.90;;;;;;10409896;28;20053;-72
2021/12/24 08:43:33;;;;;;;7.82;2.40;;;7.90;99.90;;;;;;10409503;28;20113;-64
2021/12/24 08:48:34;;;;;;;9.55;3.13;;;7.90;99.90;;;;;;10408864;28;20503;-72
2021/12/24 08:53:35;;;;;;;8.05;2.92;;;8.00;99.90;;;;;;10411636;28;20034;-72
2021/12/24 08:58:37;;;;;;;8.48;3.28;;;8.00;99.90;;;;;;10418253;28;20413;-62
2021/12/24 09:03:38;;;;;;;7.32;3.58;;;8.00;99.90;;;;;;10408102;28;20041;-66
2021/12/24 09:08:42;;;;;;;11.75;2.90;;;8.00;99.90;;;;;;10398210;28;20033;-70
2021/12/24 09:13:43;;;;;;;10.93;2.65;;;8.00;99.90;;;;;;10396095;28;20026;-66
2021/12/24 09:18:44;;;;;;;8.40;2.63;;;8.00;99.90;;;;;;10405289;28;20033;-67
2021/12/24 09:23:48;;;;;;;11.90;3.15;;;8.10;99.90;;;;;;10401770;28;20083;-68
2021/12/24 09:28:48;;;;;;;10.57;2.78;;;8.10;99.90;;;;;;10400448;28;20033;-72
2021/12/24 09:33:50;;;;;;;9.15;2.85;;;8.10;99.90;;;;;;10405273;28;20053;-69
2021/12/24 09:38:53;;;;;;;6.50;2.70;;;8.10;99.90;;;;;;10406571;28;20511;-69
2021/12/24 09:43:56;;;;;;;13.13;2.80;;;8.10;99.90;;;;;;10405016;28;20021;-71
2021/12/24 09:48:59;;;;;;;5.97;2.30;;;8.60;99.90;;;;;;10400051;28;20021;-69
2021/12/24 09:54:00;;;;;;;8.60;2.63;;;8.10;99.90;;;;;;10378935;28;20044;-71
2021/12/24 09:59:00;;;;;;;7.00;2.63;;;8.20;99.90;;;;;;10376211;28;20457;-66
2021/12/24 10:04:21;;;;;;;9.35;2.75;;;8.10;99.90;;;;;;10371195;28;20116;-63
2021/12/24 10:09:29;;;;;;;5.47;2.30;;;8.20;99.90;;;;;;10389844;28;20045;-72
2021/12/24 10:14:36;;;;;;;9.10;2.10;;;8.20;99.90;;;;;;10406692;28;20120;-74
2021/12/24 10:19:47;;;;;;;8.80;2.35;;;8.20;99.90;;;;;;10404911;28;20132;-74
2021/12/24 10:25:12;;;;;;;7.10;2.08;;;8.20;99.90;;;;;;10401744;28;20072;-74
2021/12/24 10:30:27;;;;;;;8.48;2.40;;;8.20;99.90;;;;;;10400555;28;20068;-72
2021/12/24 10:35:31;;;;;;;7.78;2.85;;;8.30;99.90;;;;;;10403186;28;20045;-66
2021/12/24 10:40:32;;;;;;;7.22;2.20;;;8.30;99.90;;;;;;10403412;28;20029;-66
2021/12/24 10:45:33;;;;;;;5.88;2.25;;;8.30;99.90;;;;;;10403130;28;20040;-73
2021/12/24 10:50:38;;;;;;;8.18;2.90;;;8.30;99.90;;;;;;10401711;28;20115;-74
2021/12/24 10:56:06;;;;;;;9.18;2.65;;;8.40;99.90;;;;;;10400751;28;20121;-67
2021/12/24 11:01:15;;;;;;;9.18;2.35;;;8.40;99.90;;;;;;10394794;28;20045;-61
2021/12/24 11:06:16;;;;;;;9.13;2.63;;;8.40;99.90;;;;;;10403827;28;20040;-71
2021/12/24 11:11:18;;;;;;;6.05;2.05;;;8.40;99.90;;;;;;10403586;28;20029;-67
2021/12/24 11:16:23;;;;;;;7.70;2.85;;;8.50;99.90;;;;;;10402348;28;20042;-63
2021/12/24 11:21:26;;;;;;;4.70;2.00;;;8.40;99.90;;;;;;10399459;28;20029;-71
2021/12/24 11:26:32;;;;;;;9.43;2.67;;;8.40;99.90;;;;;;10400969;28;20033;-71
2021/12/24 11:31:34;;;;;;;6.40;2.30;;;8.50;99.90;;;;;;10401158;28;20076;-68
2021/12/24 11:36:36;;;;;;;4.78;1.95;;;8.40;99.90;;;;;;10404446;28;20069;-73
2021/12/24 11:41:38;;;;;;;8.73;2.67;;;8.50;99.90;;;;;;10402826;28;20034;-69
2021/12/24 11:46:40;;;;;;;7.00;2.30;;;8.60;99.90;;;;;;10405649;28;20079;-70
2021/12/24 11:51:42;;;;;;;5.07;2.40;;;8.50;99.90;;;;;;10410591;28;20483;-74
2021/12/24 11:56:48;;;;;;;6.65;2.30;;;8.50;99.90;;;;;;10407719;28;20037;-74
2021/12/24 12:01:49;;;;;;;3.90;1.95;;;8.50;99.90;;;;;;10409374;28;20049;-75
2021/12/24 12:06:51;;;;;;;6.85;2.65;;;8.60;99.90;;;;;;10407910;28;20087;-64
2021/12/24 12:11:58;;;;;;;10.68;2.88;;;8.80;99.90;;;;;;10404326;28;20443;-70
2021/12/24 12:17:05;;;;;;;8.65;2.10;;;9.60;99.90;;;;;;10412251;28;20044;-69
2021/12/24 12:22:17;;;;;;;10.13;2.25;;;10.20;99.90;;;;;;10409014;28;20048;-69
2021/12/24 12:27:26;;;;;;;5.57;1.80;;;10.40;99.90;;;;;;10408412;28;20033;-72
2021/12/24 12:32:39;;;;;;;5.40;2.33;;;10.20;99.90;;;;;;10397285;28;20041;-69
2021/12/24 12:37:44;;;;;;;4.22;1.60;;;10.00;99.90;;;;;;10408945;28;20029;-66
2021/12/24 12:42:58;;;;;;;5.93;1.88;;;9.70;99.90;;;;;;10406093;28;20533;-61
2021/12/24 12:48:01;;;;;;;3.10;1.20;;;9.60;99.90;;;;;;10406929;28;20033;-70
2021/12/24 12:53:35;;;;;;;4.07;1.50;;;9.50;99.90;;;;;;10399706;28;20032;-69
2021/12/24 12:58:39;;;;;;;10.63;1.50;;;9.50;99.90;;;;;;10408064;28;20041;-64
2021/12/24 13:04:06;;;;;;;2.45;1.23;;;9.40;99.90;;;;;;10409096;28;20041;-65
2021/12/24 13:09:13;;;;;;;2.50;1.17;;;9.30;99.90;;;;;;10397441;28;20034;-71
2021/12/24 13:14:15;;;;;;;3.67;1.00;;;9.20;99.90;;;;;;10406174;28;20402;-69
2021/12/24 13:24:18;;;;;;;3.42;1.30;;;9.10;99.90;;;;;;10404945;28;20033;-70
2021/12/24 13:29:23;;;;;;;7.15;1.30;;;9.10;99.90;;;;;;10405319;28;20021;-71
2021/12/24 13:34:25;;;;;;;1.70;0.75;;;9.10;99.90;;;;;;10404919;28;20043;-70
2021/12/24 13:39:26;;;;;;;5.15;1.00;;;9.00;99.90;;;;;;10405040;28;20017;-68
2021/12/24 13:44:30;;;;;;;1.45;0.75;;;8.90;99.90;;;;;;10405375;28;20021;-67
2021/12/24 13:54:39;;;;;;;3.03;0.73;;;8.90;99.90;;;;;;10404403;28;20075;-61
2021/12/24 13:59:40;;;;;;;3.83;1.23;;;8.70;99.90;;;;;;10395991;28;20077;-67
2021/12/24 14:04:40;;;;;;;1.02;0.73;;;8.50;99.90;;;;;;10389043;28;20022;-67
2021/12/24 14:09:41;;;;;;;3.15;0.90;;;8.50;99.90;;;;;;10383701;28;20022;-64
2021/12/24 14:14:53;;;;;;;2.85;0.95;;;8.80;99.90;;;;;;10367600;28;20045;-70
2021/12/24 14:25:07;;;;;;;0.73;0.60;;;8.60;99.90;;;;;;10372691;28;20026;-69
2021/12/24 14:30:10;;;;;;;2.22;0.77;;;8.60;99.90;;;;;;10371921;28;20042;-65
2021/12/24 14:35:30;;;;;;;0.75;0.60;;;8.60;99.90;;;;;;10375822;28;20505;-66
2021/12/24 14:40:33;;;;;;;2.38;0.90;;;8.60;99.90;;;;;;10408709;28;20036;-68
2021/12/24 14:45:39;;;;;;;1.60;0.70;;;8.60;99.90;;;;;;10404227;28;20091;-64
2021/12/24 14:50:52;;;;;;;0.95;0.63;;;8.70;99.90;;;;;;10390361;28;20088;-64
2021/12/24 14:55:57;;;;;;;1.85;0.73;;;8.60;99.90;;;;;;10386979;28;20041;-68
2021/12/24 15:01:03;;;;;;;2.60;0.90;;;8.60;99.90;;;;;;10400539;28;20213;-63
2021/12/24 15:06:25;;;;;;;1.73;1.17;;;8.60;99.90;;;;;;10397334;28;20033;-69
2021/12/24 15:11:29;;;;;;;1.73;1.00;;;8.60;99.90;;;;;;10397431;28;20036;-73
2021/12/24 15:16:37;;;;;;;1.70;1.00;;;8.60;99.90;;;;;;10378423;28;20046;-62
2021/12/24 15:21:38;;;;;;;2.53;1.17;;;8.70;99.90;;;;;;10389491;28;20037;-70
2021/12/24 15:26:39;;;;;;;1.45;0.82;;;8.60;99.90;;;;;;10390957;28;20382;-68
2021/12/24 15:31:44;;;;;;;2.78;1.00;;;8.60;99.90;;;;;;10380082;28;20048;-70
2021/12/24 15:36:44;;;;;;;1.55;0.85;;;8.60;99.90;;;;;;10387242;28;20148;-67
2021/12/24 15:41:47;;;;;;;1.98;1.00;;;8.50;99.90;;;;;;10401875;28;20033;-63
2021/12/24 15:46:48;;;;;;;1.98;1.15;;;8.50;99.90;;;;;;10401455;28;20028;-62
2021/12/24 15:51:49;;;;;;;1.17;0.80;;;8.50;99.90;;;;;;10401425;28;20030;-67
2021/12/24 15:56:50;;;;;;;4.78;1.10;;;8.50;99.90;;;;;;10400197;28;20033;-69
2021/12/24 16:01:51;;;;;;;1.65;1.05;;;8.50;99.90;;;;;;10395159;28;20427;-68
2021/12/24 16:06:53;;;;;;;3.75;1.20;;;8.50;99.90;;;;;;10397945;28;20053;-67
2021/12/24 16:11:53;;;;;;;2.63;1.13;;;8.40;99.90;;;;;;10398238;28;20459;-65
2021/12/24 16:16:57;;;;;;;3.25;1.30;;;8.40;99.90;;;;;;10401360;28;20052;-60
2021/12/24 16:21:58;;;;;;;1.67;1.30;;;8.50;99.90;;;;;;10397325;28;20449;-68
2021/12/24 16:26:59;;;;;;;2.53;1.38;;;8.50;99.90;;;;;;10381203;28;20323;-61
2021/12/24 16:31:59;;;;;;;4.25;1.67;;;8.50;99.90;;;;;;10371218;28;20408;-65
2021/12/24 16:37:00;;;;;;;2.13;1.27;;;8.40;99.90;;;;;;10376802;28;20044;-67
2021/12/24 16:42:01;;;;;;;2.20;1.50;;;8.50;99.90;;;;;;10378611;28;20125;-66
2021/12/24 16:47:03;;;;;;;3.55;1.90;;;8.50;99.90;;;;;;10405450;28;20029;-67
2021/12/24 16:52:08;;;;;;;2.60;1.67;;;8.50;99.90;;;;;;10405774;28;20025;-68
2021/12/24 16:57:09;;;;;;;2.30;1.40;;;8.40;99.90;;;;;;10395900;28;20052;-62
2021/12/24 17:02:16;;;;;;;3.95;1.67;;;8.40;99.90;;;;;;10404564;28;20046;-61
2021/12/24 17:07:16;;;;;;;2.78;1.65;;;8.40;99.90;;;;;;10396609;28;20075;-62
2021/12/24 17:12:17;;;;;;;3.15;1.80;;;8.40;99.90;;;;;;10393088;28;20452;-60
2021/12/24 17:17:18;;;;;;;2.97;1.77;;;8.50;99.90;;;;;;10372941;28;20177;-64
2021/12/24 17:22:19;;;;;;;3.10;1.48;;;8.40;99.90;;;;;;10395865;28;20022;-68
2021/12/24 17:27:20;;;;;;;3.63;2.05;;;8.40;99.90;;;;;;10405535;28;20137;-66
2021/12/24 17:32:21;;;;;;;4.28;2.08;;;8.40;99.90;;;;;;10387487;28;20045;-68
2021/12/24 17:37:22;;;;;;;2.25;1.42;;;8.60;99.90;;;;;;10372244;28;20037;-67
2021/12/24 17:42:23;;;;;;;2.63;1.60;;;8.40;99.90;;;;;;10366485;28;20366;-64
2021/12/24 17:47:27;;;;;;;3.85;1.80;;;8.40;99.90;;;;;;10370950;28;20026;-61
2021/12/24 17:52:27;;;;;;;2.90;1.73;;;8.30;99.90;;;;;;10371258;28;20068;-65
2021/12/24 17:57:28;;;;;;;3.90;1.80;;;8.30;99.90;;;;;;10406365;28;20495;-66
2021/12/24 18:02:29;;;;;;;3.38;1.73;;;8.30;99.90;;;;;;10400787;28;20053;-66
2021/12/24 18:07:30;;;;;;;2.28;1.52;;;8.30;99.90;;;;;;10405726;28;20044;-70
2021/12/24 18:12:32;;;;;;;3.65;1.88;;;8.30;99.90;;;;;;10407622;28;20025;-70
2021/12/24 18:17:33;;;;;;;4.03;1.77;;;8.30;99.90;;;;;;10375500;28;20535;-61
2021/12/24 18:22:34;;;;;;;2.83;1.40;;;8.30;99.90;;;;;;10379512;28;20037;-65
2021/12/24 18:27:34;;;;;;;3.50;1.90;;;8.30;99.90;;;;;;10380973;28;20025;-67
2021/12/24 18:32:35;;;;;;;2.55;1.73;;;8.30;99.90;;;;;;10373410;28;20459;-66
2021/12/24 18:38:21;;;;;;;2.35;1.33;;;8.30;99.90;;;;;;10374233;28;20041;-63
2021/12/24 18:42:57;;;;;;;4.28;2.08;;;8.30;99.90;;;;;;10373109;28;20030;-63
2021/12/24 18:47:58;;;;;;;2.35;1.48;;;8.30;99.90;;;;;;10371835;28;20567;-64
2021/12/24 18:52:59;;;;;;;2.38;1.25;;;8.30;99.90;;;;;;10376178;28;20018;-64
2021/12/24 18:57:59;;;;;;;3.38;1.45;;;8.40;99.90;;;;;;10368040;28;20033;-62
2021/12/24 19:03:00;;;;;;;2.90;1.30;;;8.20;99.90;;;;;;10376236;28;20068;-61
2021/12/24 19:08:01;;;;;;;2.17;1.40;;;8.20;99.90;;;;;;10379380;28;20040;-62
2021/12/24 19:13:02;;;;;;;3.25;1.55;;;8.20;99.90;;;;;;10381696;28;20487;-62
2021/12/24 19:18:03;;;;;;;4.20;1.65;;;8.20;99.90;;;;;;10385848;28;20485;-62
2021/12/24 19:23:04;;;;;;;2.47;1.42;;;8.10;99.90;;;;;;10382022;28;20343;-62
2021/12/24 19:28:06;;;;;;;4.22;2.47;;;8.10;99.90;;;;;;10372717;28;20354;-61
2021/12/24 19:33:06;;;;;;;4.75;2.13;;;8.30;99.90;;;;;;10379874;28;20289;-68
2021/12/24 19:38:07;;;;;;;5.13;2.42;;;8.10;99.90;;;;;;10389236;28;20049;-60
2021/12/24 19:43:09;;;;;;;4.45;2.40;;;8.10;99.90;;;;;;10400588;28;20080;-60
2021/12/24 19:48:10;;;;;;;9.75;3.50;;;8.10;99.90;;;;;;10387570;28;20036;-61
2021/12/24 19:53:11;;;;;;;6.88;3.00;;;8.10;99.90;;;;;;10396050;28;20430;-61
2021/12/24 19:58:12;;;;;;;7.47;3.85;;;8.00;99.90;;;;;;10385673;28;20038;-66
2021/12/24 20:03:12;;;;;;;6.60;3.33;;;8.00;99.90;;;;;;10387236;28;20133;-61
2021/12/24 20:08:13;;;;;;;7.22;3.30;;;8.00;99.90;;;;;;10399900;28;20025;-64
2021/12/24 20:13:14;;;;;;;7.32;3.28;;;8.00;99.90;;;;;;10409536;28;20026;-64
2021/12/24 20:18:15;;;;;;;7.35;3.35;;;8.00;99.90;;;;;;10408444;28;20076;-62
2021/12/24 20:23:16;;;;;;;7.07;3.50;;;7.90;99.90;;;;;;10400461;28;20014;-60
2021/12/24 20:28:17;;;;;;;5.25;3.10;;;7.90;99.90;;;;;;10397870;28;20041;-66
2021/12/24 20:33:17;;;;;;;6.60;3.20;;;7.90;99.90;;;;;;10395318;28;20021;-62
2021/12/24 20:38:20;;;;;;;6.90;3.53;;;7.90;99.90;;;;;;10399007;28;20084;-65
2021/12/24 20:43:21;;;;;;;7.70;3.40;;;7.90;99.90;;;;;;10404804;28;20034;-61
2021/12/24 20:48:22;;;;;;;6.45;3.40;;;7.80;99.90;;;;;;10406831;28;20401;-66
2021/12/24 20:53:23;;;;;;;6.28;3.20;;;7.80;99.90;;;;;;10395893;28;20029;-61
2021/12/24 20:58:24;;;;;;;7.88;3.00;;;7.80;99.90;;;;;;10400216;28;20041;-59
2021/12/24 21:03:26;;;;;;;6.25;3.25;;;7.70;99.90;;;;;;10394044;28;20362;-60
2021/12/24 21:08:27;;;;;;;7.40;3.65;;;7.70;99.90;;;;;;10382576;28;20030;-61
2021/12/24 21:13:28;;;;;;;6.57;2.97;;;7.70;99.90;;;;;;10383168;28;20021;-62
2021/12/24 21:18:28;;;;;;;5.03;2.97;;;7.60;99.90;;;;;;10384435;28;20042;-63
2021/12/24 21:23:34;;;;;;;6.72;2.78;;;7.60;99.90;;;;;;10397061;28;20488;-63
2021/12/24 21:28:34;;;;;;;7.18;3.08;;;7.60;99.90;;;;;;10381601;28;20415;-64
2021/12/24 21:33:35;;;;;;;6.20;3.40;;;7.60;99.90;;;;;;10380701;28;20038;-65
2021/12/24 21:38:37;;;;;;;6.72;3.00;;;7.60;99.90;;;;;;10391383;28;20157;-62
2021/12/24 21:43:38;;;;;;;6.97;3.33;;;7.50;99.90;;;;;;10379093;28;20038;-68
2021/12/24 21:48:39;;;;;;;6.05;3.10;;;7.50;99.90;;;;;;10373853;28;20030;-67
2021/12/24 21:53:40;;;;;;;6.47;3.22;;;7.50;99.90;;;;;;10375271;28;20072;-64
2021/12/24 21:58:42;;;;;;;7.07;3.80;;;7.50;99.90;;;;;;10376012;28;20038;-67
2021/12/24 22:03:55;;;;;;;5.05;3.03;;;7.50;99.90;;;;;;10385928;28;20061;-68
2021/12/24 22:08:57;;;;;;;6.00;3.67;;;7.40;99.90;;;;;;10375480;28;20060;-67
2021/12/24 22:14:03;;;;;;;10.73;3.53;;;7.40;99.90;;;;;;10393593;28;20034;-67
2021/12/24 22:19:05;;;;;;;6.90;3.42;;;7.40;99.90;;;;;;10389747;28;20022;-67
2021/12/24 22:24:06;;;;;;;7.50;3.72;;;7.40;99.90;;;;;;10391000;28;20170;-66
2021/12/24 22:29:15;;;;;;;6.80;3.35;;;7.40;99.90;;;;;;10390151;28;20436;-67
2021/12/24 22:34:16;;;;;;;5.68;3.05;;;7.40;99.90;;;;;;10396640;28;20033;-67
2021/12/24 22:39:18;;;;;;;8.38;4.03;;;7.40;99.90;;;;;;10403549;28;20040;-66
2021/12/24 22:44:19;;;;;;;7.15;3.38;;;7.40;99.90;;;;;;10371469;28;20497;-68
2021/12/24 22:49:20;;;;;;;8.48;4.13;;;7.40;99.90;;;;;;10384178;28;20021;-65
2021/12/24 22:54:25;;;;;;;8.25;3.85;;;7.40;99.90;;;;;;10382051;28;20032;-64
2021/12/24 22:59:26;;;;;;;5.22;3.25;;;7.30;99.90;;;;;;10388696;28;20052;-66
2021/12/24 23:04:27;;;;;;;9.13;3.60;;;7.30;99.90;;;;;;10389497;28;20369;-60
2021/12/24 23:09:27;;;;;;;7.65;3.45;;;7.30;99.90;;;;;;10399841;28;20025;-66
2021/12/24 23:14:28;;;;;;;7.95;3.72;;;7.30;99.90;;;;;;10385781;28;20598;-64
2021/12/24 23:19:32;;;;;;;10.27;3.45;;;7.20;99.90;;;;;;10401991;28;20084;-61
2021/12/24 23:24:33;;;;;;;7.68;3.60;;;7.20;99.90;;;;;;10401908;28;20080;-63
2021/12/24 23:29:34;;;;;;;6.32;3.33;;;7.20;99.90;;;;;;10396735;28;20115;-61
2021/12/24 23:34:35;;;;;;;6.00;3.00;;;7.20;99.90;;;;;;10399319;28;20076;-66
2021/12/24 23:39:35;;;;;;;5.97;2.85;;;7.20;99.90;;;;;;10400300;28;20026;-63
2021/12/24 23:44:43;;;;;;;6.22;3.10;;;7.10;99.90;;;;;;10389670;28;20107;-63
2021/12/24 23:49:44;;;;;;;4.18;2.58;;;7.10;99.90;;;;;;10391664;28;20116;-61
2021/12/24 23:54:45;;;;;;;6.10;2.42;;;7.10;99.90;;;;;;10402160;28;20435;-63
2021/12/24 23:59:46;;;;;;;8.23;2.75;;;7.10;99.90;;;;;;10401237;28;20057;-66
